Time;durP1;ratioP1;P1;durP2;ratioP2;P2;SDS_P1;SDS_P2;PMS_P1;PMS_P2;Temp;Humidity;BMP_temperature;BMP_pressure;BME280_temperature;BME280_humidity;BME280_pressure;Samples;Min_cycle;Max_cycle;Signal;HPM_P1;HPM_P2
2023/11/15 00:00:25;;;;;;;12.20;6.83;;;9.30;99.90;;;;;;4890203;29;20267;-72
2023/11/15 00:02:51;;;;;;;11.50;6.57;;;9.30;99.90;;;;;;4904538;29;20210;-73
2023/11/15 00:05:16;;;;;;;11.23;6.43;;;9.30;99.90;;;;;;4881982;29;20452;-73
2023/11/15 00:07:42;;;;;;;16.70;7.40;;;9.30;99.90;;;;;;4898961;29;20519;-72
2023/11/15 00:10:08;;;;;;;13.40;8.00;;;9.30;99.90;;;;;;4900991;29;20167;-73
2023/11/15 00:12:34;;;;;;;14.50;8.30;;;9.30;99.90;;;;;;4891645;29;20228;-72
2023/11/15 00:14:59;;;;;;;12.73;8.07;;;9.30;99.90;;;;;;4898981;29;20524;-73
2023/11/15 00:17:25;;;;;;;10.37;6.90;;;9.30;99.90;;;;;;4898049;29;20188;-70
2023/11/15 00:19:51;;;;;;;11.90;7.00;;;9.30;99.90;;;;;;4890174;29;20204;-71
2023/11/15 00:22:17;;;;;;;13.40;7.73;;;9.30;99.90;;;;;;4897068;29;20218;-72
2023/11/15 00:24:43;;;;;;;11.20;7.37;;;9.30;99.90;;;;;;4899823;29;20452;-71
2023/11/15 00:27:11;;;;;;;9.23;6.70;;;9.30;99.90;;;;;;4871192;29;20543;-72
2023/11/15 00:29:37;;;;;;;10.23;6.47;;;9.30;99.90;;;;;;4861572;29;20698;-73
2023/11/15 00:32:04;;;;;;;8.43;6.00;;;9.30;99.90;;;;;;4894597;29;20427;-71
2023/11/15 00:34:30;;;;;;;12.30;6.53;;;9.30;99.90;;;;;;4893900;29;20435;-72
2023/11/15 00:36:56;;;;;;;14.57;7.80;;;9.40;99.90;;;;;;4897414;29;20531;-71
2023/11/15 00:39:21;;;;;;;20.03;8.23;;;9.40;99.90;;;;;;4908616;29;20423;-71
2023/11/15 00:41:47;;;;;;;10.53;7.23;;;9.30;99.90;;;;;;4880528;29;20191;-71
2023/11/15 00:44:14;;;;;;;10.83;7.20;;;9.30;99.90;;;;;;4878313;29;20211;-71
2023/11/15 00:46:40;;;;;;;11.30;6.90;;;9.40;99.90;;;;;;4878206;29;20278;-70
2023/11/15 00:49:06;;;;;;;13.67;7.17;;;9.40;99.90;;;;;;4895891;29;20429;-70
2023/11/15 00:51:32;;;;;;;12.53;6.90;;;9.40;99.90;;;;;;4867812;29;20525;-70
2023/11/15 00:53:58;;;;;;;19.63;7.53;;;9.40;99.90;;;;;;4900324;29;20468;-73
2023/11/15 00:56:23;;;;;;;13.47;6.97;;;9.30;99.90;;;;;;4899603;29;20612;-70
2023/11/15 00:58:49;;;;;;;9.60;5.37;;;9.30;99.90;;;;;;4888328;29;20256;-70
2023/11/15 01:01:15;;;;;;;24.67;8.43;;;9.40;99.90;;;;;;4879378;29;20186;-72
2023/11/15 01:03:55;;;;;;;12.93;6.77;;;9.40;99.90;;;;;;4886620;29;20535;-70
2023/11/15 01:06:23;;;;;;;12.10;6.40;;;9.30;99.90;;;;;;4892432;29;20455;-72
2023/11/15 01:08:50;;;;;;;11.40;5.60;;;9.30;99.90;;;;;;4876150;29;20456;-71
2023/11/15 01:11:15;;;;;;;11.60;6.17;;;9.40;99.90;;;;;;4883311;29;20421;-70
2023/11/15 01:13:41;;;;;;;9.00;5.97;;;9.40;99.90;;;;;;4894665;29;20973;-71
2023/11/15 01:16:07;;;;;;;12.13;6.70;;;9.30;99.90;;;;;;4879252;29;20222;-71
2023/11/15 01:18:36;;;;;;;8.63;5.10;;;9.30;99.90;;;;;;4888727;29;20200;-71
2023/11/15 01:21:02;;;;;;;15.27;5.47;;;9.30;99.90;;;;;;4864806;29;20423;-71
2023/11/15 01:23:28;;;;;;;11.67;5.70;;;9.30;99.90;;;;;;4867849;29;20730;-71
2023/11/15 01:25:55;;;;;;;7.90;4.90;;;9.30;99.90;;;;;;4877182;29;20874;-72
2023/11/15 01:28:21;;;;;;;8.83;4.60;;;9.40;99.90;;;;;;4869964;29;20459;-71
2023/11/15 01:30:46;;;;;;;9.93;4.73;;;9.40;99.90;;;;;;4875356;29;20433;-71
2023/11/15 01:33:12;;;;;;;8.23;5.07;;;9.30;99.90;;;;;;4892595;29;20308;-71
2023/11/15 01:35:37;;;;;;;12.40;5.70;;;9.40;99.90;;;;;;4864162;29;20220;-70
2023/11/15 01:38:03;;;;;;;6.33;4.80;;;9.30;99.90;;;;;;4884111;29;20196;-71
2023/11/15 01:40:33;;;;;;;9.07;4.30;;;9.40;99.90;;;;;;4877926;29;20610;-71
2023/11/15 01:43:00;;;;;;;6.73;3.90;;;9.40;99.90;;;;;;4875268;29;20239;-71
2023/11/15 01:45:27;;;;;;;8.03;4.30;;;9.40;99.90;;;;;;4898498;29;20459;-72
2023/11/15 01:47:53;;;;;;;5.73;4.03;;;9.40;99.90;;;;;;4868650;29;20429;-71
2023/11/15 01:50:19;;;;;;;7.90;5.00;;;9.40;99.90;;;;;;4862703;29;20448;-72
2023/11/15 01:52:47;;;;;;;11.07;5.60;;;9.40;99.90;;;;;;4881628;29;20471;-71
2023/11/15 01:55:20;;;;;;;12.30;4.93;;;9.40;99.90;;;;;;4892922;29;20215;-70
2023/11/15 01:57:49;;;;;;;16.70;5.57;;;9.40;99.90;;;;;;4866542;29;20507;-71
2023/11/15 02:00:15;;;;;;;10.20;5.90;;;9.40;99.90;;;;;;4870944;29;20447;-71
2023/11/15 02:02:42;;;;;;;17.70;7.13;;;9.40;99.90;;;;;;4867025;29;20425;-71
2023/11/15 02:05:09;;;;;;;17.13;6.70;;;9.40;99.90;;;;;;4887150;29;20864;-72
2023/11/15 02:07:38;;;;;;;10.27;5.13;;;9.40;99.90;;;;;;4889811;29;20435;-72
2023/11/15 02:10:06;;;;;;;9.00;5.40;;;9.40;99.90;;;;;;4872432;29;20511;-72
2023/11/15 02:12:33;;;;;;;9.60;5.30;;;9.40;99.90;;;;;;4857198;29;20476;-70
2023/11/15 02:14:59;;;;;;;11.73;5.23;;;9.40;99.90;;;;;;4887299;29;20535;-70
2023/11/15 02:17:28;;;;;;;8.97;5.00;;;9.40;99.90;;;;;;4891392;29;20412;-72
2023/11/15 02:19:54;;;;;;;9.80;5.80;;;9.40;99.90;;;;;;4867183;29;20875;-72
2023/11/15 02:22:19;;;;;;;15.57;6.10;;;9.40;99.90;;;;;;4888226;29;20424;-70
2023/11/15 02:24:45;;;;;;;7.33;5.03;;;9.40;99.90;;;;;;4862291;29;20342;-70
2023/11/15 02:27:11;;;;;;;9.30;5.67;;;9.50;99.90;;;;;;4885807;29;20206;-72
2023/11/15 02:29:38;;;;;;;9.00;4.90;;;9.40;99.90;;;;;;4886179;29;20448;-72
2023/11/15 02:32:04;;;;;;;6.30;4.90;;;9.50;99.90;;;;;;4871152;29;20424;-72
2023/11/15 02:34:30;;;;;;;11.83;5.83;;;9.50;99.90;;;;;;4882563;29;20513;-73
2023/11/15 02:36:56;;;;;;;9.07;6.70;;;9.50;99.90;;;;;;4889920;29;20424;-72
2023/11/15 02:39:22;;;;;;;9.93;5.60;;;9.50;99.90;;;;;;4889186;29;20202;-73
2023/11/15 02:41:48;;;;;;;12.87;5.30;;;9.50;99.90;;;;;;4899768;29;20184;-71
2023/11/15 02:44:14;;;;;;;8.90;5.43;;;9.50;99.90;;;;;;4884649;29;20494;-71
2023/11/15 02:46:40;;;;;;;7.60;4.87;;;9.50;99.90;;;;;;4868115;29;20533;-72
2023/11/15 02:49:05;;;;;;;10.07;5.07;;;9.50;99.90;;;;;;4866266;29;20467;-71
2023/11/15 02:51:31;;;;;;;11.87;5.20;;;9.50;99.90;;;;;;4900067;29;20195;-71
2023/11/15 02:53:57;;;;;;;6.60;4.83;;;9.50;99.90;;;;;;4900464;29;20634;-70
2023/11/15 02:56:22;;;;;;;10.40;5.33;;;9.50;99.90;;;;;;4868267;29;20678;-71
2023/11/15 02:58:48;;;;;;;8.20;5.30;;;9.50;99.90;;;;;;4868221;29;20274;-70
2023/11/15 03:01:14;;;;;;;10.50;5.37;;;9.50;99.90;;;;;;4894511;29;20195;-71
2023/11/15 03:03:40;;;;;;;10.77;5.73;;;9.50;99.90;;;;;;4864181;29;20275;-71
2023/11/15 03:06:06;;;;;;;16.07;5.60;;;9.50;99.90;;;;;;4868114;29;20478;-72
2023/11/15 03:08:31;;;;;;;9.00;5.47;;;9.50;99.90;;;;;;4884666;29;20224;-71
2023/11/15 03:10:57;;;;;;;8.17;5.03;;;9.50;99.90;;;;;;4884557;29;20742;-73
2023/11/15 03:13:23;;;;;;;5.77;4.73;;;9.50;99.90;;;;;;4867079;29;20258;-72
2023/11/15 03:15:50;;;;;;;12.10;6.13;;;9.50;99.90;;;;;;4871454;29;20251;-71
2023/11/15 03:18:16;;;;;;;12.00;5.60;;;9.50;99.90;;;;;;4883223;29;20424;-73
2023/11/15 03:20:42;;;;;;;11.97;6.17;;;9.50;99.90;;;;;;4868367;29;20431;-71
2023/11/15 03:23:09;;;;;;;7.57;4.90;;;9.50;99.90;;;;;;4892231;29;20725;-71
2023/11/15 03:25:36;;;;;;;11.17;5.80;;;9.50;99.90;;;;;;4887341;29;20472;-70
2023/11/15 03:28:02;;;;;;;12.87;5.17;;;9.40;99.90;;;;;;4884324;29;20443;-73
2023/11/15 03:30:28;;;;;;;15.23;5.93;;;9.40;99.90;;;;;;4886955;29;20448;-71
2023/11/15 03:32:53;;;;;;;13.47;6.40;;;9.40;99.90;;;;;;4868334;29;20548;-73
2023/11/15 03:35:20;;;;;;;9.80;6.47;;;9.40;99.90;;;;;;4881599;29;20577;-71
2023/11/15 03:37:46;;;;;;;11.80;6.60;;;9.40;99.90;;;;;;4874936;29;20708;-71
2023/11/15 03:40:12;;;;;;;13.17;6.43;;;9.40;99.90;;;;;;4884008;29;20408;-72
2023/11/15 03:42:38;;;;;;;13.90;7.70;;;9.30;99.90;;;;;;4877449;29;20202;-73
2023/11/15 03:45:05;;;;;;;15.97;6.43;;;9.30;99.90;;;;;;4893733;29;20556;-72
2023/11/15 03:47:31;;;;;;;9.43;6.63;;;9.30;99.90;;;;;;4883344;29;20420;-71
2023/11/15 03:49:59;;;;;;;15.60;6.90;;;9.30;99.90;;;;;;4864390;29;20533;-72
2023/11/15 03:52:24;;;;;;;18.27;6.80;;;9.30;99.90;;;;;;4866542;29;20436;-72
2023/11/15 03:54:51;;;;;;;17.57;7.33;;;9.20;99.90;;;;;;4866467;29;20466;-73
2023/11/15 03:57:17;;;;;;;19.73;6.80;;;9.20;99.90;;;;;;4895402;29;20455;-72
2023/11/15 03:59:43;;;;;;;12.70;6.30;;;9.20;99.90;;;;;;4874163;29;20887;-72
2023/11/15 04:02:08;;;;;;;16.23;6.23;;;9.20;99.90;;;;;;4883554;29;20584;-73
2023/11/15 04:04:37;;;;;;;16.23;6.33;;;9.20;99.90;;;;;;4881840;29;20211;-71
2023/11/15 04:07:03;;;;;;;15.33;6.40;;;9.20;99.90;;;;;;4879167;29;20206;-73
2023/11/15 04:09:31;;;;;;;13.03;6.17;;;9.20;99.90;;;;;;4902378;29;20817;-72
2023/11/15 04:11:56;;;;;;;13.33;6.90;;;9.20;99.90;;;;;;4875470;29;20524;-73
2023/11/15 04:14:24;;;;;;;13.17;6.40;;;9.20;99.90;;;;;;4898213;29;20851;-74
2023/11/15 04:16:50;;;;;;;7.20;5.43;;;9.20;99.90;;;;;;4883064;29;20195;-72
2023/11/15 04:19:17;;;;;;;8.90;5.20;;;9.20;99.90;;;;;;4861129;29;20434;-73
2023/11/15 04:21:43;;;;;;;12.70;5.30;;;9.20;99.90;;;;;;4860270;29;20191;-72
2023/11/15 04:24:08;;;;;;;10.50;5.30;;;9.20;99.90;;;;;;4863645;29;20793;-70
2023/11/15 04:26:37;;;;;;;9.17;5.23;;;9.20;99.90;;;;;;4882382;29;20279;-72
2023/11/15 04:29:03;;;;;;;14.57;5.57;;;9.20;99.90;;;;;;4875493;29;20455;-72
2023/11/15 04:31:29;;;;;;;12.80;5.83;;;9.20;99.90;;;;;;4882604;29;20427;-72
2023/11/15 04:33:55;;;;;;;12.80;6.30;;;9.30;99.90;;;;;;4861759;29;20925;-72
2023/11/15 04:36:21;;;;;;;10.30;5.90;;;9.30;99.90;;;;;;4881208;29;20212;-72
2023/11/15 04:38:47;;;;;;;18.03;6.70;;;9.30;99.90;;;;;;4882483;29;20416;-73
2023/11/15 04:41:13;;;;;;;17.00;6.80;;;9.30;99.90;;;;;;4882609;29;20420;-73
2023/11/15 04:43:39;;;;;;;19.70;6.73;;;9.30;99.90;;;;;;4882214;29;20208;-72
2023/11/15 04:46:05;;;;;;;16.93;7.40;;;9.30;99.90;;;;;;4881187;29;20247;-73
2023/11/15 04:48:30;;;;;;;14.10;6.97;;;9.30;99.90;;;;;;4882256;29;20883;-72
2023/11/15 04:50:57;;;;;;;10.60;5.73;;;9.20;99.90;;;;;;4866167;29;20453;-73
2023/11/15 04:53:24;;;;;;;20.47;7.23;;;9.20;99.90;;;;;;4883061;29;20291;-73
2023/11/15 04:55:50;;;;;;;12.27;6.50;;;9.20;99.90;;;;;;4883036;29;20531;-73
2023/11/15 04:58:16;;;;;;;15.67;6.70;;;9.20;99.90;;;;;;4873034;29;20415;-73
2023/11/15 05:00:42;;;;;;;15.40;6.17;;;9.20;99.90;;;;;;4890404;29;20439;-72
2023/11/15 05:03:08;;;;;;;18.30;6.37;;;9.10;99.90;;;;;;4881056;29;20206;-72
2023/11/15 05:05:33;;;;;;;13.07;6.03;;;9.10;99.90;;;;;;4880157;29;20436;-74
2023/11/15 05:07:59;;;;;;;20.13;6.43;;;9.20;99.90;;;;;;4898423;29;20235;-72
2023/11/15 05:10:25;;;;;;;16.40;6.33;;;9.20;99.90;;;;;;4890021;29;20203;-74
2023/11/15 05:12:51;;;;;;;17.87;6.57;;;9.20;99.90;;;;;;4890985;29;20255;-73
2023/11/15 05:15:18;;;;;;;13.50;5.67;;;9.20;99.90;;;;;;4885211;29;20515;-75
2023/11/15 05:17:43;;;;;;;16.40;6.93;;;9.20;99.90;;;;;;4905037;29;20220;-75
2023/11/15 05:20:10;;;;;;;17.20;6.77;;;9.20;99.90;;;;;;4893330;29;20436;-73
2023/11/15 05:22:36;;;;;;;11.57;6.33;;;9.20;99.90;;;;;;4878689;29;20203;-73
2023/11/15 05:25:06;;;;;;;17.77;6.30;;;9.10;99.90;;;;;;4894455;29;20730;-74
2023/11/15 05:27:33;;;;;;;15.33;6.23;;;9.20;99.90;;;;;;4897550;29;20431;-73
2023/11/15 05:29:58;;;;;;;12.93;6.33;;;9.10;99.90;;;;;;4904762;29;20428;-75
2023/11/15 05:32:24;;;;;;;25.13;6.90;;;9.10;99.90;;;;;;4896759;29;20435;-73
2023/11/15 05:34:50;;;;;;;18.63;5.87;;;9.00;99.90;;;;;;4877788;29;20797;-73
2023/11/15 05:37:15;;;;;;;18.83;6.13;;;9.00;99.90;;;;;;4878669;29;20279;-74
2023/11/15 05:39:41;;;;;;;25.77;8.07;;;9.00;99.90;;;;;;4896433;29;20195;-74
2023/11/15 05:42:07;;;;;;;20.37;7.37;;;9.00;99.90;;;;;;4888496;29;20187;-76
2023/11/15 05:44:33;;;;;;;22.90;7.50;;;8.90;99.90;;;;;;4897869;29;20223;-74
2023/11/15 05:47:00;;;;;;;14.97;5.77;;;8.90;99.90;;;;;;4897036;29;20427;-77
2023/11/15 05:49:26;;;;;;;16.97;6.30;;;8.90;99.90;;;;;;4884674;29;20460;-75
2023/11/15 05:51:52;;;;;;;11.37;6.17;;;8.90;99.90;;;;;;4896741;29;20440;-74
2023/11/15 05:54:18;;;;;;;20.90;6.70;;;8.90;99.90;;;;;;4871782;29;20301;-76
2023/11/15 05:56:46;;;;;;;22.77;7.70;;;9.00;99.90;;;;;;4889344;29;20432;-74
2023/11/15 05:59:12;;;;;;;26.00;7.87;;;9.00;99.90;;;;;;4906408;29;20171;-75
2023/11/15 06:01:38;;;;;;;24.37;9.07;;;9.00;99.90;;;;;;4869653;29;20435;-74
2023/11/15 06:04:04;;;;;;;27.07;8.23;;;9.00;99.90;;;;;;4872007;29;20443;-75
2023/11/15 06:06:29;;;;;;;20.67;7.60;;;9.10;99.90;;;;;;4868748;29;20323;-75
2023/11/15 06:08:55;;;;;;;14.60;7.00;;;9.10;99.90;;;;;;4885052;29;20207;-75
2023/11/15 06:11:21;;;;;;;18.17;7.60;;;9.10;99.90;;;;;;4913423;29;20195;-75
2023/11/15 06:13:46;;;;;;;22.27;7.47;;;9.20;99.90;;;;;;4899236;29;20231;-75
2023/11/15 06:16:12;;;;;;;16.23;7.37;;;9.20;99.90;;;;;;4915020;29;20443;-76
2023/11/15 06:18:38;;;;;;;23.00;8.83;;;9.10;99.90;;;;;;4901981;29;20195;-76
2023/11/15 06:21:05;;;;;;;16.70;7.07;;;9.10;99.90;;;;;;4885263;29;20199;-76
2023/11/15 06:23:33;;;;;;;18.00;6.67;;;9.10;99.90;;;;;;4884544;29;20856;-76
2023/11/15 06:25:59;;;;;;;13.17;6.90;;;9.20;99.90;;;;;;4906967;29;20495;-75
2023/11/15 06:28:25;;;;;;;17.47;7.87;;;9.20;99.90;;;;;;4887541;29;20434;-76
2023/11/15 06:30:51;;;;;;;24.73;10.10;;;9.20;99.90;;;;;;4883655;29;20433;-76
2023/11/15 06:33:17;;;;;;;17.97;7.93;;;9.30;99.90;;;;;;4889535;29;20215;-76
2023/11/15 06:35:44;;;;;;;17.90;8.20;;;9.30;99.90;;;;;;4866967;29;20776;-77
2023/11/15 06:38:09;;;;;;;27.57;9.13;;;9.30;99.90;;;;;;4908466;29;20427;-76
2023/11/15 06:40:35;;;;;;;23.30;8.77;;;9.30;99.90;;;;;;4867891;29;20439;-79
2023/11/15 06:43:01;;;;;;;21.97;9.03;;;9.40;99.90;;;;;;4900181;29;20214;-78
2023/11/15 06:45:28;;;;;;;12.67;8.30;;;9.40;99.90;;;;;;4890478;29;20270;-78
2023/11/15 06:47:54;;;;;;;20.70;9.60;;;9.40;99.90;;;;;;4892286;29;20423;-78
2023/11/15 06:50:20;;;;;;;18.93;8.93;;;9.40;99.90;;;;;;4884852;29;20491;-80
2023/11/15 06:52:45;;;;;;;15.97;8.93;;;9.30;99.90;;;;;;4893182;29;20306;-77
2023/11/15 06:55:11;;;;;;;28.03;10.27;;;9.30;99.90;;;;;;4903484;29;20454;-78
2023/11/15 06:57:40;;;;;;;23.23;10.40;;;9.30;99.90;;;;;;4913190;29;20184;-79
2023/11/15 07:00:08;;;;;;;37.37;12.73;;;9.30;99.90;;;;;;4895621;29;20404;-79
2023/11/15 07:02:37;;;;;;;17.97;10.80;;;9.40;99.90;;;;;;4901775;29;20705;-78
2023/11/15 07:05:05;;;;;;;22.33;9.37;;;9.40;99.90;;;;;;4881171;29;20432;-77
2023/11/15 07:07:31;;;;;;;23.80;9.83;;;9.40;99.90;;;;;;4881072;29;20506;-79
2023/11/15 07:09:58;;;;;;;22.40;9.63;;;9.40;99.90;;;;;;4904498;29;20426;-79
2023/11/15 07:12:24;;;;;;;22.80;11.63;;;9.40;99.90;;;;;;4878376;29;20436;-79
2023/11/15 07:17:54;;;;;;;38.60;11.27;;;9.40;99.90;;;;;;4870615;24;20500;-80
2023/11/15 07:20:23;;;;;;;52.67;14.67;;;9.40;99.90;;;;;;4862811;29;20437;-79
2023/11/15 07:22:49;;;;;;;21.33;9.90;;;9.40;99.90;;;;;;4819634;29;20434;-78
2023/11/15 07:25:19;;;;;;;42.17;12.07;;;9.40;99.90;;;;;;4852972;29;20548;-80
2023/11/15 07:27:45;;;;;;;27.70;11.90;;;9.40;99.90;;;;;;4839917;29;20427;-78
2023/11/15 07:30:13;;;;;;;25.37;9.70;;;9.50;99.90;;;;;;4829738;29;20442;-78
2023/11/15 07:32:39;;;;;;;21.47;10.53;;;9.40;99.90;;;;;;4839041;29;20527;-78
2023/11/15 07:35:11;;;;;;;36.93;11.40;;;9.50;99.90;;;;;;4857560;29;20461;-81
2023/11/15 07:37:37;;;;;;;26.73;9.27;;;9.50;99.90;;;;;;4828072;29;20453;-79
2023/11/15 07:40:14;;;;;;;31.27;10.00;;;9.50;99.90;;;;;;4840998;29;20420;-79
2023/11/15 07:42:42;;;;;;;28.10;10.40;;;9.60;99.90;;;;;;4849902;29;20438;-79
2023/11/15 07:45:10;;;;;;;26.73;10.83;;;9.60;99.90;;;;;;4831786;29;20514;-79
2023/11/15 07:47:48;;;;;;;33.17;9.03;;;9.60;99.90;;;;;;4826214;29;20435;-79
2023/11/15 07:50:25;;;;;;;32.93;13.10;;;9.50;99.90;;;;;;4847585;29;20419;-80
2023/11/15 07:52:52;;;;;;;31.90;10.20;;;9.60;99.90;;;;;;4830370;29;20581;-79
2023/11/15 07:55:19;;;;;;;27.43;8.93;;;9.60;99.90;;;;;;4845328;29;20485;-78
2023/11/15 07:57:48;;;;;;;22.00;9.60;;;9.60;99.90;;;;;;4851185;29;20636;-80
2023/11/15 08:00:22;;;;;;;20.83;10.07;;;9.70;99.90;;;;;;4860546;29;20438;-78
2023/11/15 08:02:51;;;;;;;21.63;10.07;;;9.70;99.90;;;;;;4850747;29;20421;-78
2023/11/15 08:05:21;;;;;;;25.67;9.50;;;9.70;99.90;;;;;;4831457;29;20512;-78
2023/11/15 08:07:48;;;;;;;33.23;10.00;;;9.70;99.90;;;;;;4871882;29;20504;-78
2023/11/15 08:10:14;;;;;;;34.03;8.73;;;9.80;99.90;;;;;;4862322;29;20446;-78
2023/11/15 08:12:44;;;;;;;32.60;11.00;;;9.70;99.90;;;;;;4847412;29;20534;-79
2023/11/15 08:15:14;;;;;;;30.00;12.23;;;9.70;99.90;;;;;;4843489;29;20462;-79
2023/11/15 08:17:46;;;;;;;45.57;12.17;;;9.70;99.90;;;;;;4833350;29;20459;-78
2023/11/15 08:20:21;;;;;;;29.20;9.97;;;9.80;99.90;;;;;;4868715;29;20405;-79
2023/11/15 08:22:58;;;;;;;59.50;10.80;;;9.90;99.90;;;;;;4838916;29;20446;-78
2023/11/15 08:25:25;;;;;;;20.37;8.80;;;9.90;99.90;;;;;;4843153;29;20441;-80
2023/11/15 08:27:53;;;;;;;19.37;7.40;;;9.80;99.90;;;;;;4882952;29;20441;-81
2023/11/15 08:30:21;;;;;;;33.57;10.33;;;9.90;99.90;;;;;;4878679;29;20403;-81
2023/11/15 08:32:50;;;;;;;36.13;8.40;;;9.90;99.90;;;;;;4850863;29;20605;-83
2023/11/15 08:35:17;;;;;;;29.47;8.17;;;10.00;99.90;;;;;;4850993;29;20462;-80
2023/11/15 08:37:43;;;;;;;24.90;7.97;;;9.90;99.90;;;;;;4868888;29;20483;-81
2023/11/15 08:40:13;;;;;;;16.83;5.63;;;9.90;99.90;;;;;;4832790;29;20433;-77
2023/11/15 08:42:39;;;;;;;23.70;6.17;;;10.00;99.90;;;;;;4849090;29;20453;-79
2023/11/15 08:45:11;;;;;;;20.23;5.33;;;9.90;99.90;;;;;;4867453;29;20476;-79
2023/11/15 08:47:37;;;;;;;27.80;6.43;;;9.90;99.90;;;;;;4864447;29;20438;-81
2023/11/15 08:50:08;;;;;;;23.77;6.90;;;10.00;99.90;;;;;;4877050;29;20891;-80
2023/11/15 08:52:48;;;;;;;15.97;5.67;;;10.10;99.90;;;;;;4846708;29;20474;-79
2023/11/15 08:55:14;;;;;;;21.73;5.73;;;10.20;99.90;;;;;;4846448;29;20489;-81
2023/11/15 08:57:40;;;;;;;19.20;5.60;;;10.40;99.90;;;;;;4847020;29;20432;-80
2023/11/15 09:00:15;;;;;;;18.30;5.60;;;10.40;99.90;;;;;;4832851;29;20440;-79
2023/11/15 09:02:47;;;;;;;19.40;5.40;;;10.50;99.90;;;;;;4862020;29;20431;-78
2023/11/15 09:05:15;;;;;;;16.03;5.03;;;10.60;99.90;;;;;;4995351;23;20491;-80
2023/11/15 09:07:45;;;;;;;15.10;5.03;;;10.60;99.90;;;;;;4892806;29;20422;-79
2023/11/15 09:10:13;;;;;;;11.27;5.00;;;10.90;99.90;;;;;;4867979;29;20446;-80
2023/11/15 09:12:40;;;;;;;5.77;4.00;;;11.20;99.90;;;;;;4871293;29;20459;-79
2023/11/15 09:15:20;;;;;;;19.37;4.87;;;11.50;99.90;;;;;;4837628;29;20451;-80
2023/11/15 09:17:50;;;;;;;8.60;4.13;;;11.60;99.90;;;;;;4872678;29;20430;-79
2023/11/15 09:20:25;;;;;;;10.13;4.30;;;11.80;99.90;;;;;;4847561;29;20421;-79
2023/11/15 09:22:57;;;;;;;20.43;5.57;;;11.80;99.90;;;;;;4831579;29;20434;-78
2023/11/15 09:25:28;;;;;;;9.83;3.87;;;12.20;99.90;;;;;;4862783;29;20457;-81
2023/11/15 09:28:02;;;;;;;17.27;4.33;;;12.30;99.90;;;;;;4898809;29;20425;-82
2023/11/15 09:30:34;;;;;;;14.80;3.63;;;12.30;99.90;;;;;;4899010;29;20501;-81
2023/11/15 09:33:05;;;;;;;11.73;2.93;;;12.20;99.90;;;;;;4834463;29;20533;-78
2023/11/15 09:35:35;;;;;;;15.37;4.27;;;12.10;99.90;;;;;;4849479;29;20514;-80
2023/11/15 09:38:01;;;;;;;12.40;3.60;;;12.20;99.90;;;;;;4862766;29;20466;-79
2023/11/15 09:40:35;;;;;;;13.33;4.10;;;12.20;99.90;;;;;;4831028;29;20404;-81
2023/11/15 09:43:02;;;;;;;15.00;5.07;;;12.10;99.90;;;;;;4817592;29;20418;-79
2023/11/15 09:45:31;;;;;;;12.00;3.70;;;12.20;99.90;;;;;;4863692;29;20470;-80
2023/11/15 09:48:03;;;;;;;10.87;3.50;;;12.30;99.90;;;;;;4870053;29;20526;-78
2023/11/15 09:50:33;;;;;;;11.13;3.60;;;12.40;99.90;;;;;;4846019;29;20462;-83
2023/11/15 09:53:35;;;;;;;7.67;3.00;;;12.50;99.90;;;;;;4827258;29;20491;-80
2023/11/15 09:56:04;;;;;;;8.50;2.60;;;12.50;99.90;;;;;;5077227;23;20486;-80
2023/11/15 09:58:35;;;;;;;8.40;2.73;;;12.60;99.90;;;;;;4868719;29;20416;-81
2023/11/15 10:01:02;;;;;;;9.47;2.27;;;12.70;99.90;;;;;;4853862;29;20436;-79
2023/11/15 10:03:32;;;;;;;10.93;2.97;;;12.60;99.90;;;;;;4853572;29;20535;-81
2023/11/15 10:06:03;;;;;;;10.20;3.37;;;12.60;99.90;;;;;;4885077;29;20468;-81
2023/11/15 10:08:30;;;;;;;6.87;3.37;;;12.70;99.90;;;;;;4870284;29;20464;-81
2023/11/15 10:11:06;;;;;;;11.23;2.90;;;12.70;99.90;;;;;;4859585;29;20469;-82
2023/11/15 10:13:38;;;;;;;5.83;2.30;;;12.80;99.90;;;;;;4888762;29;21212;-79
2023/11/15 10:16:30;;;;;;;9.93;2.93;;;12.80;99.90;;;;;;4868847;29;20451;-82
2023/11/15 10:19:00;;;;;;;11.30;2.43;;;12.90;99.90;;;;;;4867000;29;20418;-79
2023/11/15 10:21:26;;;;;;;5.13;2.77;;;13.10;99.90;;;;;;4877675;29;20435;-83
2023/11/15 10:24:16;;;;;;;9.90;3.27;;;13.20;99.90;;;;;;4886887;29;20472;-82
2023/11/15 10:26:43;;;;;;;12.00;3.20;;;13.30;99.90;;;;;;4886679;29;20435;-78
2023/11/15 10:29:13;;;;;;;13.03;2.77;;;13.40;99.90;;;;;;4868339;29;20433;-80
2023/11/15 10:31:53;;;;;;;8.33;2.47;;;13.50;99.90;;;;;;4881286;29;20411;-78
2023/11/15 10:34:23;;;;;;;12.20;2.67;;;13.30;99.90;;;;;;4850362;29;20534;-82
2023/11/15 10:37:10;;;;;;;15.30;3.63;;;13.20;99.90;;;;;;4881460;29;20439;-82
2023/11/15 10:40:00;;;;;;;10.17;3.17;;;13.00;99.90;;;;;;4884578;29;20411;-80
2023/11/15 10:42:38;;;;;;;7.10;2.63;;;13.00;99.90;;;;;;4868417;29;20421;-80
2023/11/15 10:45:13;;;;;;;9.00;3.53;;;13.00;99.90;;;;;;4853577;29;20461;-82
2023/11/15 10:48:05;;;;;;;10.83;2.67;;;13.10;99.90;;;;;;4867898;29;20424;-81
2023/11/15 10:51:16;;;;;;;9.47;3.00;;;13.00;99.90;;;;;;4867732;29;20440;-81
2023/11/15 10:54:09;;;;;;;6.60;3.00;;;13.10;99.90;;;;;;5018867;23;20482;-82
2023/11/15 10:56:37;;;;;;;13.17;3.00;;;13.00;99.90;;;;;;4868390;29;20430;-82
2023/11/15 11:01:55;;;;;;;10.03;2.60;;;13.10;99.90;;;;;;5260506;23;20475;-80
2023/11/15 11:10:23;;;;;;;10.53;3.03;;;13.40;99.90;;;;;;4978110;23;20488;-81
2023/11/15 11:13:21;;;;;;;12.03;2.60;;;13.40;99.90;;;;;;4872939;29;20441;-81
2023/11/15 11:15:50;;;;;;;19.47;3.47;;;13.30;99.90;;;;;;5332291;23;20477;-80
2023/11/15 11:18:41;;;;;;;8.17;2.70;;;13.20;99.90;;;;;;4877205;29;20443;-81
2023/11/15 11:21:12;;;;;;;11.37;3.10;;;13.20;99.90;;;;;;4890107;29;20436;-81
2023/11/15 11:24:16;;;;;;;6.57;2.30;;;13.20;99.90;;;;;;4866859;29;20416;-80
2023/11/15 11:30:12;;;;;;;9.47;2.70;;;12.90;99.90;;;;;;5062519;23;20471;-80
2023/11/15 11:32:44;;;;;;;10.30;3.60;;;12.90;99.90;;;;;;5227312;23;20481;-81
2023/11/15 11:35:34;;;;;;;10.07;3.17;;;13.00;99.90;;;;;;4838217;29;20463;-81
2023/11/15 11:38:03;;;;;;;10.87;3.20;;;13.00;99.90;;;;;;4814949;29;20520;-81
2023/11/15 11:40:40;;;;;;;6.13;3.10;;;13.00;99.90;;;;;;4761094;29;20547;-82
2023/11/15 11:43:42;;;;;;;13.73;3.77;;;13.00;99.90;;;;;;4761436;30;20457;-80
2023/11/15 11:46:18;;;;;;;6.73;2.10;;;13.00;99.90;;;;;;4761363;29;20474;-82
2023/11/15 11:49:19;;;;;;;8.77;3.20;;;13.00;99.90;;;;;;4387596;24;15082000;-81
2023/11/15 11:51:47;;;;;;;9.30;3.00;;;13.00;99.90;;;;;;4830795;29;20495;-81
2023/11/15 12:04:06;;;;;;;13.87;3.13;;;13.30;99.90;;;;;;5218380;23;20479;-85
2023/11/15 12:13:16;;;;;;;5.03;2.60;;;13.30;99.90;;;;;;5304897;23;20490;-81
2023/11/15 12:19:10;;;;;;;4.73;2.53;;;13.50;99.90;;;;;;4145041;27;20464;-84
2023/11/15 12:21:56;;;;;;;10.43;3.83;;;13.80;99.90;;;;;;4854915;29;20430;-84
2023/11/15 12:24:48;;;;;;;12.47;3.00;;;13.80;98.60;;;;;;4886553;29;20432;-83
2023/11/15 12:27:18;;;;;;;28.17;4.00;;;13.90;98.80;;;;;;4860857;29;20544;-83
2023/11/15 12:30:04;;;;;;;5.93;2.47;;;14.00;98.30;;;;;;4859500;29;20404;-82
2023/11/15 12:35:11;;;;;;;7.87;4.33;;;14.10;98.40;;;;;;4934737;23;20456;-83
2023/11/15 12:37:42;;;;;;;14.00;2.80;;;14.00;99.40;;;;;;4864022;29;20446;-81
2023/11/15 12:40:32;;;;;;;5.53;2.17;;;14.00;99.90;;;;;;4838060;29;20459;-83
2023/11/15 12:49:34;;;;;;;10.53;3.00;;;14.20;99.90;;;;;;1093442;27;20756;-79
2023/11/15 12:52:08;;;;;;;8.63;2.30;;;14.20;99.90;;;;;;4844663;29;20452;-81
2023/11/15 12:54:35;;;;;;;5.60;2.10;;;14.10;99.90;;;;;;4870071;29;20466;-81
2023/11/15 12:57:14;;;;;;;7.70;2.50;;;13.90;99.90;;;;;;4869319;29;20425;-82
2023/11/15 12:59:52;;;;;;;6.53;2.03;;;13.70;99.80;;;;;;4851209;29;20458;-81
2023/11/15 13:02:30;;;;;;;4.53;2.17;;;13.50;99.90;;;;;;4819081;29;20419;-80
2023/11/15 13:05:03;;;;;;;11.00;2.70;;;13.40;99.90;;;;;;4828750;29;20438;-81
2023/11/15 13:07:36;;;;;;;5.10;2.07;;;13.20;99.90;;;;;;4852202;29;20406;-83
2023/11/15 13:10:10;;;;;;;6.10;1.93;;;13.20;99.90;;;;;;4828124;29;20512;-82
2023/11/15 13:12:53;;;;;;;6.17;1.83;;;13.20;99.90;;;;;;4817803;29;20427;-82
2023/11/15 13:15:39;;;;;;;9.23;2.00;;;13.20;99.90;;;;;;4803047;29;20450;-80
2023/11/15 13:18:12;;;;;;;10.60;2.97;;;13.10;99.90;;;;;;4831270;29;20502;-82
2023/11/15 13:20:39;;;;;;;4.77;2.07;;;13.10;99.90;;;;;;4858606;29;20452;-81
2023/11/15 13:25:45;;;;;;;8.13;2.80;;;13.00;98.80;;;;;;3988903;23;20485;-81
2023/11/15 13:28:35;;;;;;;9.60;3.03;;;12.90;96.80;;;;;;4853912;29;20426;-83
2023/11/15 13:31:28;;;;;;;8.63;2.10;;;12.90;96.60;;;;;;4869799;29;20445;-81
2023/11/15 13:34:04;;;;;;;5.93;2.10;;;13.00;97.80;;;;;;4891009;29;20472;-81
2023/11/15 13:36:36;;;;;;;6.67;1.93;;;12.80;96.50;;;;;;4870065;29;20462;-82
2023/11/15 13:54:36;;;;;;;6.33;2.10;;;12.50;99.90;;;;;;5934696;23;20429;-81
2023/11/15 13:57:02;;;;;;;6.07;2.23;;;12.50;99.90;;;;;;4827637;29;20718;-73
2023/11/15 13:59:31;;;;;;;5.07;1.93;;;12.40;99.90;;;;;;4822309;29;20443;-73